Westerville, South Dakota
Current Conditions -  °F | °C
As of 6:55 PM on Monday 26 Jan 2015 (Local Time) from KYKN Reporting Station
Clear Clear  
Wind Chill: 37°   Ceiling: Unl
Heat Index: 43°   Visibility: 10mi
Dew Point: 34°   Wind: 12mph
Humidity: 70%   Direction: 290°WNW
Pressure: 30.01"   Gusts: NA
Location:  42.8915°N, 96.9263°W
Report Text: KYKN 270055Z AUTO 29010KT 10SM CLR 06/01 A3001 RMK AO1
Loading
Personal Weather Stations






























Interactive Weather Map New forecast layout! Learn more

10-Day Weather Forecast

Advertisements
Track Severe Weather on mobile